createdAt,value
2023-05-18T00:02:01.557Z,0.85
2023-05-18T00:04:28.963Z,1.10
2023-05-18T00:06:58.583Z,0.75
2023-05-18T00:09:26.332Z,1.05
2023-05-18T00:11:53.792Z,0.85
2023-05-18T00:14:20.371Z,0.75
2023-05-18T00:16:47.464Z,0.70
2023-05-18T00:19:15.188Z,0.90
2023-05-18T00:21:42.758Z,1.10
2023-05-18T00:24:11.352Z,0.45
2023-05-18T00:26:39.138Z,0.70
2023-05-18T00:29:06.675Z,0.35
2023-05-18T00:31:36.339Z,1.15
2023-05-18T00:34:03.890Z,0.75
2023-05-18T00:36:31.257Z,0.77
2023-05-18T00:38:58.603Z,0.68
2023-05-18T00:41:26.359Z,2.70
2023-05-18T00:43:53.519Z,0.57
2023-05-18T00:46:20.357Z,0.55
2023-05-18T00:48:47.121Z,0.50
2023-05-18T00:51:14.147Z,0.93
2023-05-18T00:53:43.419Z,0.30
2023-05-18T00:56:12.514Z,0.20
2023-05-18T00:58:41.071Z,0.73
2023-05-18T01:01:09.430Z,0.60
2023-05-18T01:03:39.758Z,0.38
2023-05-18T01:06:06.965Z,0.40
2023-05-18T01:08:34.503Z,0.50
2023-05-18T01:11:26.786Z,1.00
2023-05-18T01:14:00.756Z,0.75
2023-05-18T01:16:34.181Z,0.40
2023-05-18T01:19:09.710Z,0.60
2023-05-18T01:21:54.083Z,0.22
2023-05-18T01:26:57.465Z,0.77
2023-05-18T01:29:25.890Z,0.25
2023-05-18T01:31:52.732Z,0.35
2023-05-18T01:34:19.318Z,0.47
2023-05-18T01:36:45.761Z,0.35
2023-05-18T01:39:12.334Z,0.60
2023-05-18T01:41:46.287Z,0.45
2023-05-18T01:44:20.737Z,0.70
2023-05-18T01:47:04.373Z,0.20
2023-05-18T01:49:43.073Z,0.30
2023-05-18T01:52:12.225Z,0.13
2023-05-18T01:54:43.289Z,0.20
2023-05-18T01:57:10.812Z,0.38
2023-05-18T01:59:37.989Z,0.75
2023-05-18T02:02:05.583Z,0.35
2023-05-18T02:04:32.230Z,0.43
2023-05-18T02:06:58.659Z,0.40
2023-05-18T02:09:25.118Z,0.52
2023-05-18T02:11:51.597Z,0.40
2023-05-18T02:14:18.020Z,0.43
2023-05-18T02:19:14.818Z,0.35
2023-05-18T02:21:43.451Z,0.20
2023-05-18T02:24:11.719Z,0.45
2023-05-18T02:26:38.618Z,0.28
2023-05-18T02:29:06.905Z,0.20
2023-05-18T02:31:33.554Z,0.30
2023-05-18T02:34:00.040Z,0.05
2023-05-18T02:36:26.535Z,0.20
2023-05-18T02:38:53.013Z,0.15
2023-05-18T02:41:19.491Z,0.57
2023-05-18T02:43:45.996Z,0.30
2023-05-18T02:46:12.506Z,0.28
2023-05-18T02:48:39.119Z,0.10
2023-05-18T02:51:05.593Z,1.38
2023-05-18T02:53:32.090Z,0.22
2023-05-18T02:55:58.550Z,0.40
2023-05-18T02:58:25.667Z,1.52
2023-05-18T03:00:55.128Z,0.20
2023-05-18T03:03:21.866Z,0.22
2023-05-18T03:05:48.408Z,0.22
2023-05-18T03:08:14.856Z,0.13
2023-05-18T03:10:41.343Z,0.25
2023-05-18T03:13:07.739Z,0.15
2023-05-18T03:18:00.691Z,0.17
2023-05-18T03:20:28.046Z,0.10
2023-05-18T03:22:54.532Z,0.10
2023-05-18T03:25:22.473Z,0.10
2023-05-18T03:27:48.928Z,0.20
2023-05-18T03:30:15.564Z,0.20
2023-05-18T03:32:42.117Z,0.20
2023-05-18T03:35:09.008Z,0.13
2023-05-18T03:37:35.471Z,0.20
2023-05-18T03:42:35.391Z,0.25
2023-05-18T03:45:01.890Z,0.38
2023-05-18T03:47:29.773Z,0.15
2023-05-18T03:49:56.322Z,0.30
2023-05-18T03:52:24.010Z,0.13
2023-05-18T03:54:50.727Z,0.35
2023-05-18T03:57:18.062Z,0.30
2023-05-18T03:59:45.557Z,0.22
2023-05-18T04:02:13.098Z,0.10
2023-05-18T04:04:42.037Z,0.20
2023-05-18T04:07:08.837Z,0.25
2023-05-18T04:09:36.207Z,0.22
2023-05-18T04:12:03.154Z,0.15
2023-05-18T04:14:32.943Z,0.10
2023-05-18T04:17:04.870Z,0.50
2023-05-18T04:19:32.906Z,0.30
2023-05-18T04:22:00.278Z,0.13
2023-05-18T04:24:27.780Z,0.17
2023-05-18T04:26:54.363Z,0.30
2023-05-18T04:29:21.246Z,0.10
2023-05-18T04:31:47.994Z,0.50
2023-05-18T04:34:17.906Z,0.30
2023-05-18T04:36:45.014Z,1.08
2023-05-18T04:39:12.255Z,0.52
2023-05-18T04:41:42.065Z,0.20
2023-05-18T04:44:09.419Z,0.52
2023-05-18T04:46:39.701Z,4.47
2023-05-18T04:49:06.292Z,47.38
2023-05-18T04:51:34.533Z,93.00
2023-05-18T04:54:03.289Z,82.60
2023-05-18T04:56:29.869Z,81.95
2023-05-18T04:58:59.363Z,86.00
2023-05-18T05:01:26.114Z,81.72
2023-05-18T05:03:52.750Z,71.45
2023-05-18T05:06:19.283Z,68.97
2023-05-18T05:08:45.966Z,61.72
2023-05-18T05:11:12.515Z,68.97
2023-05-18T05:13:38.997Z,64.82
2023-05-18T05:18:32.574Z,43.63
2023-05-18T05:20:59.633Z,46.92
2023-05-18T05:23:26.265Z,49.03
2023-05-18T05:25:52.804Z,46.38
2023-05-18T05:28:19.244Z,38.83
2023-05-18T05:33:12.161Z,33.25
2023-05-18T05:35:38.830Z,35.03
2023-05-18T05:38:06.238Z,33.80
2023-05-18T05:40:32.911Z,36.42
2023-05-18T05:42:59.359Z,28.15
2023-05-18T05:47:55.128Z,26.27
2023-05-18T05:50:21.753Z,22.75
2023-05-18T05:52:48.235Z,27.42
2023-05-18T05:55:14.733Z,30.00
2023-05-18T05:57:42.804Z,24.75
2023-05-18T06:00:11.395Z,23.38
2023-05-18T06:02:38.158Z,19.77
2023-05-18T06:05:07.234Z,20.55
2023-05-18T06:07:34.463Z,21.02
2023-05-18T06:10:00.943Z,20.38
2023-05-18T06:14:57.456Z,17.10
2023-05-18T06:17:26.846Z,17.25
2023-05-18T06:19:54.193Z,18.05
2023-05-18T06:22:20.776Z,14.55
2023-05-18T06:24:47.256Z,12.93
2023-05-18T06:29:40.072Z,8.95
2023-05-18T06:34:33.248Z,7.80
2023-05-18T06:37:00.040Z,7.32
2023-05-18T06:39:26.689Z,9.23
2023-05-18T06:41:53.184Z,8.50
2023-05-18T06:46:47.803Z,7.35
2023-05-18T06:49:14.696Z,6.13
2023-05-18T06:51:42.849Z,6.07
2023-05-18T06:54:09.555Z,8.30
2023-05-18T06:56:36.095Z,8.40
2023-05-18T06:59:02.603Z,8.32
2023-05-18T07:03:55.745Z,7.45
2023-05-18T07:06:22.277Z,3.95
2023-05-18T07:11:15.422Z,4.45
2023-05-18T07:13:42.045Z,6.57
2023-05-18T07:16:08.614Z,4.63
2023-05-18T07:18:35.340Z,3.53
2023-05-18T07:21:01.843Z,4.72
2023-05-18T07:23:28.658Z,4.55
2023-05-18T07:25:55.114Z,4.18
2023-05-18T07:28:22.197Z,4.28
2023-05-18T07:30:48.788Z,6.28
2023-05-18T07:33:15.328Z,1.90
2023-05-18T07:35:41.796Z,5.25
2023-05-18T07:38:08.255Z,4.03
2023-05-18T07:43:01.241Z,1.70
2023-05-18T07:45:27.875Z,2.38
2023-05-18T07:47:54.439Z,4.88
2023-05-18T07:50:20.972Z,2.60
2023-05-18T07:52:47.495Z,3.95
2023-05-18T07:57:40.373Z,1.50
2023-05-18T08:02:35.546Z,1.63
2023-05-18T08:05:02.061Z,0.95
2023-05-18T08:09:57.058Z,1.65
2023-05-18T08:12:24.466Z,1.15
2023-05-18T08:14:51.217Z,1.45
2023-05-18T08:17:19.568Z,1.30
2023-05-18T08:19:47.412Z,1.50
2023-05-18T08:22:14.857Z,2.05
2023-05-18T08:24:41.417Z,1.27
2023-05-18T08:27:09.858Z,0.73
2023-05-18T08:29:36.374Z,1.33
2023-05-18T08:34:30.098Z,1.02
2023-05-18T08:36:56.732Z,1.45
2023-05-18T08:39:23.395Z,0.95
2023-05-18T08:42:01.118Z,1.15
2023-05-18T08:44:57.227Z,1.15
2023-05-18T08:47:26.634Z,1.33
2023-05-18T08:49:56.630Z,1.88
2023-05-18T08:52:28.052Z,0.20
2023-05-18T08:54:56.514Z,0.85
2023-05-18T08:57:24.042Z,0.57
2023-05-18T08:59:52.965Z,0.70
2023-05-18T09:02:19.576Z,1.20
2023-05-18T09:04:46.458Z,1.95
2023-05-18T09:07:13.726Z,0.60
2023-05-18T09:09:40.946Z,0.40
2023-05-18T09:12:08.411Z,1.63
2023-05-18T09:14:34.892Z,0.90
2023-05-18T09:19:28.497Z,1.00
2023-05-18T09:21:55.028Z,1.23
2023-05-18T09:26:51.406Z,0.25
2023-05-18T09:29:19.817Z,0.75
2023-05-18T09:31:47.492Z,1.23
2023-05-18T09:34:15.072Z,2.90
2023-05-18T09:36:42.564Z,1.73
2023-05-18T09:39:11.385Z,1.63
2023-05-18T09:41:40.298Z,2.83
2023-05-18T09:44:09.595Z,2.13
2023-05-18T09:46:38.167Z,1.75
2023-05-18T09:49:05.971Z,4.22
2023-05-18T09:51:40.031Z,2.42
2023-05-18T09:54:08.572Z,3.28
2023-05-18T09:56:36.576Z,3.08
2023-05-18T09:59:12.109Z,1.75
2023-05-18T10:01:56.859Z,3.53
2023-05-18T10:04:23.804Z,2.20
2023-05-18T10:06:51.328Z,2.20
2023-05-18T10:09:17.957Z,2.25
2023-05-18T10:11:44.414Z,3.40
2023-05-18T10:14:11.739Z,1.70
2023-05-18T10:16:40.729Z,1.88
2023-05-18T10:19:10.962Z,2.28
2023-05-18T10:21:38.921Z,0.82
2023-05-18T10:24:06.386Z,1.25
2023-05-18T10:26:39.005Z,1.92
2023-05-18T10:29:06.492Z,1.58
2023-05-18T10:31:35.660Z,109.82
2023-05-18T10:34:03.603Z,117.05
2023-05-18T10:36:32.058Z,119.10
2023-05-18T10:39:00.382Z,87.95
2023-05-18T10:41:28.152Z,84.63
2023-05-18T10:43:55.014Z,75.60
2023-05-18T10:46:26.599Z,68.70
2023-05-18T10:48:55.335Z,73.32
2023-05-18T10:51:22.810Z,61.00
2023-05-18T10:53:50.140Z,54.28
2023-05-18T10:56:17.104Z,69.45
2023-05-18T10:58:45.098Z,104.82
2023-05-18T11:01:12.749Z,138.57
2023-05-18T11:03:41.995Z,123.07
2023-05-18T11:06:11.104Z,132.48
2023-05-18T11:08:47.389Z,167.68
2023-05-18T11:11:15.575Z,205.20
2023-05-18T11:13:46.194Z,179.57
2023-05-18T11:16:12.748Z,155.40
2023-05-18T11:18:49.497Z,143.35
2023-05-18T11:21:51.556Z,137.95
2023-05-18T11:24:29.692Z,121.70
2023-05-18T11:26:59.020Z,113.75
2023-05-18T11:29:42.216Z,113.15
2023-05-18T11:32:30.466Z,100.65
2023-05-18T11:34:58.308Z,113.35
2023-05-18T11:37:48.047Z,134.05
2023-05-18T11:40:43.434Z,156.50
2023-05-18T11:43:17.788Z,156.98
2023-05-18T11:45:58.062Z,127.55
2023-05-18T11:48:27.825Z,147.15
2023-05-18T11:50:55.419Z,244.63
2023-05-18T11:53:24.967Z,235.38
2023-05-18T11:55:55.137Z,194.98
2023-05-18T11:58:24.674Z,187.02
2023-05-18T12:00:51.665Z,157.75
2023-05-18T12:03:23.574Z,153.25
2023-05-18T12:05:50.325Z,137.93
2023-05-18T12:08:19.220Z,126.78
2023-05-18T12:10:47.252Z,115.82
2023-05-18T12:13:16.751Z,106.05
2023-05-18T12:15:43.803Z,99.05
2023-05-18T12:18:10.799Z,93.75
2023-05-18T12:20:40.046Z,90.32
2023-05-18T12:23:06.707Z,80.07
2023-05-18T12:25:33.371Z,83.25
2023-05-18T12:28:01.137Z,77.53
2023-05-18T12:30:35.219Z,64.20
2023-05-18T12:33:03.173Z,62.33
2023-05-18T12:35:31.284Z,59.88
2023-05-18T12:38:00.576Z,57.78
2023-05-18T12:40:28.458Z,53.97
2023-05-18T12:42:56.925Z,45.22
2023-05-18T12:45:26.352Z,46.55
2023-05-18T12:47:56.400Z,47.00
2023-05-18T12:50:26.424Z,36.40
2023-05-18T12:52:54.705Z,33.97
2023-05-18T12:55:22.158Z,28.98
2023-05-18T12:58:00.156Z,31.63
2023-05-18T13:00:26.623Z,28.30
2023-05-18T13:02:53.232Z,33.85
2023-05-18T13:05:24.224Z,26.63
2023-05-18T13:07:50.729Z,26.33
2023-05-18T13:10:20.062Z,24.63
2023-05-18T13:12:49.093Z,26.55
2023-05-18T13:15:19.194Z,20.42
2023-05-18T13:17:59.551Z,20.00
2023-05-18T13:20:39.292Z,15.90
2023-05-18T13:23:08.855Z,19.33
2023-05-18T13:25:35.567Z,15.40
2023-05-18T13:28:03.350Z,14.82
2023-05-18T13:30:30.638Z,11.55
2023-05-18T13:32:57.683Z,16.15
2023-05-18T13:35:24.554Z,14.15
2023-05-18T13:37:51.278Z,16.15
2023-05-18T13:40:19.371Z,12.02
2023-05-18T13:42:46.514Z,13.02
2023-05-18T13:45:16.148Z,10.52
2023-05-18T13:47:43.443Z,10.35
2023-05-18T13:50:10.171Z,9.48
2023-05-18T13:52:37.559Z,11.23
2023-05-18T13:55:04.804Z,8.52
2023-05-18T13:57:32.289Z,6.15
2023-05-18T13:59:59.607Z,8.57
2023-05-18T14:02:26.540Z,6.47
2023-05-18T14:04:53.537Z,9.43
2023-05-18T14:07:20.076Z,6.53
2023-05-18T14:09:46.613Z,7.63
2023-05-18T14:12:13.117Z,5.18
2023-05-18T14:14:41.037Z,6.72
2023-05-18T14:17:09.904Z,5.07
2023-05-18T14:19:37.695Z,6.18
2023-05-18T14:22:04.290Z,6.22
2023-05-18T14:24:30.810Z,6.07
2023-05-18T14:26:57.749Z,5.10
2023-05-18T14:29:24.232Z,5.28
2023-05-18T14:31:50.975Z,5.80
2023-05-18T14:34:17.467Z,5.35
2023-05-18T14:36:43.905Z,4.57
2023-05-18T14:39:10.372Z,4.57
2023-05-18T14:41:36.848Z,4.15
2023-05-18T14:44:04.302Z,3.08
2023-05-18T14:46:31.192Z,3.60
2023-05-18T14:48:57.721Z,4.05
2023-05-18T14:51:24.674Z,3.72
2023-05-18T14:53:51.230Z,5.43
2023-05-18T14:56:17.817Z,6.47
2023-05-18T14:58:44.356Z,5.30
2023-05-18T15:01:11.329Z,6.03
2023-05-18T15:03:37.909Z,3.63
2023-05-18T15:06:04.594Z,3.08
2023-05-18T15:08:31.670Z,4.10
2023-05-18T15:10:58.121Z,4.43
2023-05-18T15:13:24.987Z,4.32
2023-05-18T15:15:51.423Z,4.22
2023-05-18T15:18:18.083Z,3.72
2023-05-18T15:20:45.443Z,5.43
2023-05-18T15:23:12.086Z,22.30
2023-05-18T15:25:39.449Z,76.72
2023-05-18T15:28:06.681Z,99.93
2023-05-18T15:30:33.832Z,115.78
2023-05-18T15:33:02.361Z,117.45
2023-05-18T15:35:29.316Z,130.63
2023-05-18T15:37:56.422Z,140.60
2023-05-18T15:40:23.073Z,137.50
2023-05-18T15:42:49.531Z,170.73
2023-05-18T15:45:15.988Z,181.38
2023-05-18T15:47:43.239Z,175.77
2023-05-18T15:50:10.126Z,168.68
2023-05-18T15:52:36.623Z,155.48
2023-05-18T15:55:03.192Z,186.32
2023-05-18T15:57:29.750Z,213.32
2023-05-18T15:59:56.229Z,197.43
2023-05-18T16:02:25.138Z,174.25
2023-05-18T16:04:52.493Z,165.40
2023-05-18T16:07:19.191Z,161.93
2023-05-18T16:09:47.413Z,161.45
2023-05-18T16:12:13.997Z,158.38
2023-05-18T16:14:40.590Z,141.10
2023-05-18T16:17:07.146Z,131.27
2023-05-18T16:19:33.974Z,128.85
2023-05-18T16:22:00.419Z,131.15
2023-05-18T16:24:26.908Z,124.85
2023-05-18T16:26:53.410Z,123.22
2023-05-18T16:29:19.929Z,120.57
2023-05-18T16:31:46.411Z,131.52
2023-05-18T16:34:12.913Z,124.22
2023-05-18T16:36:39.416Z,130.38
2023-05-18T16:39:07.735Z,107.78
2023-05-18T16:41:34.216Z,123.45
2023-05-18T16:44:00.779Z,108.97
2023-05-18T16:46:27.805Z,123.90
2023-05-18T16:48:54.811Z,165.02
2023-05-18T16:51:21.296Z,169.90
2023-05-18T16:53:47.746Z,160.02
2023-05-18T16:56:14.193Z,160.63
2023-05-18T16:58:40.672Z,170.32
2023-05-18T17:01:19.400Z,161.80
2023-05-18T17:03:53.631Z,155.45
2023-05-18T17:06:21.205Z,135.93
2023-05-18T17:08:47.798Z,143.38
2023-05-18T17:11:14.353Z,127.55
2023-05-18T17:13:41.874Z,116.82
2023-05-18T17:16:08.447Z,120.53
2023-05-18T17:18:34.939Z,105.53
2023-05-18T17:21:01.336Z,117.13
2023-05-18T17:23:27.799Z,105.93
2023-05-18T17:26:00.830Z,96.47
2023-05-18T17:28:32.166Z,85.00
2023-05-18T17:30:58.643Z,86.07
2023-05-18T17:33:25.074Z,85.88
2023-05-18T17:35:51.574Z,82.72
2023-05-18T17:38:18.104Z,73.65
2023-05-18T17:40:44.568Z,82.45
2023-05-18T17:43:11.151Z,67.70
2023-05-18T17:45:37.641Z,63.38
2023-05-18T17:48:04.498Z,63.80
2023-05-18T17:50:31.160Z,55.50
2023-05-18T17:52:58.336Z,53.75
2023-05-18T17:55:24.776Z,53.55
2023-05-18T17:57:51.586Z,53.28
2023-05-18T18:00:18.579Z,47.40
2023-05-18T18:02:45.105Z,52.72
2023-05-18T18:05:11.672Z,40.95
2023-05-18T18:07:39.109Z,43.58
2023-05-18T18:10:06.855Z,39.40
2023-05-18T18:12:33.295Z,39.10
2023-05-18T18:14:59.747Z,35.10
2023-05-18T18:17:26.342Z,36.78
2023-05-18T18:19:52.828Z,34.42
2023-05-18T18:22:19.293Z,29.50
2023-05-18T18:24:45.795Z,26.58
2023-05-18T18:27:12.225Z,29.90
2023-05-18T18:29:38.697Z,28.35
2023-05-18T18:32:05.412Z,25.30
2023-05-18T18:34:31.895Z,26.85
2023-05-18T18:36:58.917Z,22.05
2023-05-18T18:39:25.416Z,24.55
2023-05-18T18:41:51.868Z,23.45
2023-05-18T18:44:18.269Z,24.67
2023-05-18T18:46:45.208Z,19.75
2023-05-18T18:49:11.756Z,16.38
2023-05-18T18:51:38.193Z,16.55
2023-05-18T18:54:04.755Z,18.20
2023-05-18T18:56:31.476Z,13.90
2023-05-18T18:58:57.927Z,19.27
2023-05-18T19:01:24.430Z,15.13
2023-05-18T19:03:52.782Z,12.00
2023-05-18T19:06:20.194Z,15.48
2023-05-18T19:08:46.628Z,12.05
2023-05-18T19:11:13.165Z,11.77
2023-05-18T19:13:39.617Z,9.48
2023-05-18T19:16:06.567Z,10.23
2023-05-18T19:18:33.090Z,11.32
2023-05-18T19:21:01.183Z,12.77
2023-05-18T19:23:27.642Z,10.20
2023-05-18T19:25:54.783Z,8.50
2023-05-18T19:28:21.638Z,9.75
2023-05-18T19:30:48.177Z,6.43
2023-05-18T19:33:14.723Z,8.45
2023-05-18T19:35:41.326Z,7.68
2023-05-18T19:38:07.795Z,6.80
2023-05-18T19:40:34.271Z,7.10
2023-05-18T19:43:01.575Z,7.70
2023-05-18T19:45:28.107Z,6.63
2023-05-18T19:47:54.828Z,7.57
2023-05-18T19:50:21.425Z,6.35
2023-05-18T19:52:49.428Z,7.13
2023-05-18T19:55:17.080Z,6.03
2023-05-18T19:57:43.509Z,5.95
2023-05-18T20:02:37.810Z,3.72
2023-05-18T20:05:06.697Z,4.00
2023-05-18T20:07:33.929Z,4.68
2023-05-18T20:10:00.375Z,4.55
2023-05-18T20:14:54.834Z,4.35
2023-05-18T20:19:50.558Z,3.83
2023-05-18T20:22:17.880Z,3.30
2023-05-18T20:24:44.703Z,2.22
2023-05-18T20:27:13.635Z,3.65
2023-05-18T20:29:40.500Z,3.25
2023-05-18T20:32:07.087Z,2.67
2023-05-18T20:34:33.505Z,2.63
2023-05-18T20:39:28.521Z,2.70
2023-05-18T20:41:55.102Z,1.83
2023-05-18T20:44:23.395Z,2.40
2023-05-18T20:46:52.887Z,2.17
2023-05-18T20:49:21.634Z,1.85
2023-05-18T20:51:49.350Z,3.15
2023-05-18T20:54:17.775Z,3.28
2023-05-18T20:56:44.519Z,3.58
2023-05-18T20:59:12.501Z,1.65
2023-05-18T21:01:41.072Z,1.75
2023-05-18T21:04:08.365Z,2.28
2023-05-18T21:06:40.274Z,1.45
2023-05-18T21:09:07.976Z,2.45
2023-05-18T21:11:34.648Z,2.95
2023-05-18T21:14:01.116Z,1.25
2023-05-18T21:16:27.664Z,2.28
2023-05-18T21:18:54.179Z,1.63
2023-05-18T21:21:20.938Z,1.90
2023-05-18T21:23:47.435Z,1.27
2023-05-18T21:26:13.899Z,2.55
2023-05-18T21:28:40.518Z,1.95
2023-05-18T21:31:07.042Z,1.75
2023-05-18T21:33:34.264Z,1.10
2023-05-18T21:36:01.613Z,1.90
2023-05-18T21:38:28.396Z,1.30
2023-05-18T21:40:56.115Z,1.30
2023-05-18T21:43:23.552Z,0.95
2023-05-18T21:45:50.518Z,1.30
2023-05-18T21:48:17.034Z,0.90
2023-05-18T21:53:09.966Z,1.80
2023-05-18T21:58:02.832Z,0.55
2023-05-18T22:00:29.814Z,0.93
2023-05-18T22:02:56.580Z,1.33
2023-05-18T22:05:23.049Z,1.48
2023-05-18T22:10:18.023Z,1.05
2023-05-18T22:12:44.865Z,0.35
2023-05-18T22:15:11.724Z,0.88
2023-05-18T22:17:38.941Z,0.60
2023-05-18T22:20:09.747Z,1.77
2023-05-18T22:22:36.366Z,0.93
2023-05-18T22:25:02.994Z,1.20
2023-05-18T22:27:29.558Z,1.38
2023-05-18T22:29:56.089Z,0.70
2023-05-18T22:32:22.774Z,0.40
2023-05-18T22:34:49.400Z,0.85
2023-05-18T22:39:42.466Z,1.40
2023-05-18T22:42:08.918Z,2.80
2023-05-18T22:44:35.347Z,17.80
2023-05-18T22:49:28.200Z,41.03
2023-05-18T22:54:21.588Z,38.72
2023-05-18T22:56:48.027Z,61.53
2023-05-18T23:03:25.982Z,45.20
2023-05-18T23:05:52.714Z,51.05
2023-05-18T23:08:20.289Z,124.18
2023-05-18T23:10:48.084Z,148.88
2023-05-18T23:13:16.076Z,147.85
2023-05-18T23:15:43.070Z,144.00
2023-05-18T23:18:10.135Z,142.68
2023-05-18T23:20:38.498Z,130.45
2023-05-18T23:23:05.196Z,133.32
2023-05-18T23:25:31.748Z,128.88
2023-05-18T23:27:58.360Z,114.38
2023-05-18T23:30:24.988Z,106.78
2023-05-18T23:32:53.139Z,111.70
2023-05-18T23:35:20.376Z,135.77
2023-05-18T23:37:49.795Z,188.38
2023-05-18T23:40:18.172Z,184.00
2023-05-18T23:42:45.342Z,176.30
2023-05-18T23:45:12.692Z,185.20
2023-05-18T23:47:39.849Z,179.35
2023-05-18T23:50:07.216Z,174.43
2023-05-18T23:52:34.718Z,157.80
2023-05-18T23:55:04.056Z,150.52
2023-05-18T23:57:31.514Z,143.88
2023-05-18T23:59:58.572Z,153.20
